Ana Sayfa
METAR-TAF:

METAR-TAF

Havaalanları :

Sallisaw, Oklahoma, Amerika Birleşik Devletleri

Enlem: 35-26-17N, Boylam: 094-48-10W, yükseklik: 161 m

Güncel hava durumu gözlemi

Rapor saat 20:15 UTC de 14 dakika önce yapıldı.
Sakin rüzgar
Sıcaklık 13°C
Nem 33%
Basınç 1027 hPa
Görüş mesafesi: 16.1 km
Açık gökyüzü

METAR: KJSV 152015Z AUTO 00000KT 10SM CLR 13/M03 A3034 RMK AO2

Saat: 14:29 (20:29 UTC)


TAF: eksik

4.000'den fazla havaalanı için hava durumu gözlemleri ve tahminleri (METAR ve TAF raporları).

Kullanılabilir istasyonlar harita üzerinde sarı ve kırmızı noktalarla gösterilir.

İstasyonun adını görmek için fareyi noktanın üzerinde gezdirin.

Sonrasında hava gözlem ve tahminlerini görmek için tıklayın.

Haritayı değiştirmek için: yaklaştırmak için siyah artı işaretli yeşil düğmeye ve uzaklaştırmak için de eksi işaretli düğmeye hızla tıklayın; bitişik haritalar için yeşil okları kullanın.


METAR-TAF: